Time;durP1;ratioP1;P1;durP2;ratioP2;P2;SDS_P1;SDS_P2;PMS_P1;PMS_P2;Temp;Humidity;BMP_temperature;BMP_pressure;BME280_temperature;BME280_humidity;BME280_pressure;Samples;Min_cycle;Max_cycle;Signal;HPM_P1;HPM_P2
2023/01/01 00:01:31;;;;;;;98.23;57.70;;;6.30;99.90;;;;;;4211399;28;20074;-64
2023/01/01 00:03:32;;;;;;;105.47;59.37;;;6.30;99.90;;;;;;4211521;28;20051;-62
2023/01/01 00:05:33;;;;;;;102.13;60.47;;;6.30;99.90;;;;;;4210886;28;20081;-64
2023/01/01 00:07:34;;;;;;;101.77;59.40;;;6.40;99.90;;;;;;4211921;28;20446;-63
2023/01/01 00:11:55;;;;;;;100.20;59.73;;;6.40;99.90;;;;;;4211734;28;20028;-62
2023/01/01 00:13:57;;;;;;;91.90;54.53;;;6.40;99.90;;;;;;4210787;28;20138;-61
2023/01/01 00:16:13;;;;;;;96.10;57.87;;;6.50;99.90;;;;;;4211717;28;20073;-61
2023/01/01 00:18:14;;;;;;;96.27;57.10;;;6.50;99.90;;;;;;4210941;28;20161;-60
2023/01/01 00:20:15;;;;;;;101.77;59.77;;;6.50;99.90;;;;;;4211969;28;20442;-60
2023/01/01 00:22:16;;;;;;;97.17;57.83;;;6.50;99.90;;;;;;4210618;28;20044;-59
2023/01/01 00:24:18;;;;;;;101.03;57.87;;;6.50;99.90;;;;;;4211761;28;20048;-66
2023/01/01 00:26:19;;;;;;;97.10;56.60;;;6.50;99.90;;;;;;4210551;28;20081;-60
2023/01/01 00:28:20;;;;;;;105.13;60.23;;;6.50;99.90;;;;;;4211714;28;20081;-65
2023/01/01 00:30:23;;;;;;;97.67;57.40;;;6.50;99.90;;;;;;4210778;28;20194;-60
2023/01/01 00:32:24;;;;;;;109.47;63.30;;;6.50;99.90;;;;;;4211663;28;20020;-63
2023/01/01 00:34:25;;;;;;;104.43;62.13;;;6.50;99.90;;;;;;4210445;28;20013;-62
2023/01/01 00:36:28;;;;;;;111.13;63.80;;;6.60;99.90;;;;;;4210988;28;20032;-60
2023/01/01 00:38:29;;;;;;;114.27;67.80;;;6.60;99.90;;;;;;4210142;28;20149;-61
2023/01/01 00:40:30;;;;;;;141.13;82.13;;;6.60;99.90;;;;;;4211195;28;20032;-63
2023/01/01 00:42:31;;;;;;;114.70;68.37;;;6.60;99.90;;;;;;4210381;28;20613;-63
2023/01/01 00:44:32;;;;;;;108.07;67.27;;;6.60;99.90;;;;;;4210324;28;20085;-62
2023/01/01 00:46:34;;;;;;;109.30;66.40;;;6.60;99.90;;;;;;4209941;28;20480;-60
2023/01/01 00:48:35;;;;;;;103.87;61.30;;;6.60;99.90;;;;;;4207948;28;20409;-61
2023/01/01 00:50:36;;;;;;;103.87;62.60;;;6.50;99.90;;;;;;4208254;28;20032;-60
2023/01/01 00:52:37;;;;;;;123.33;70.60;;;6.50;99.90;;;;;;4210058;28;20016;-63
2023/01/01 00:54:39;;;;;;;135.53;76.57;;;6.50;99.90;;;;;;4208582;28;20093;-60
2023/01/01 00:56:40;;;;;;;161.33;91.97;;;6.40;99.90;;;;;;4209667;28;20028;-63
2023/01/01 00:58:42;;;;;;;202.47;113.33;;;6.40;99.90;;;;;;4210365;28;20028;-61
2023/01/01 01:00:43;;;;;;;209.27;112.40;;;6.40;99.90;;;;;;4209813;28;20097;-60
2023/01/01 01:02:44;;;;;;;191.97;108.90;;;6.40;99.90;;;;;;4211145;28;20173;-59
2023/01/01 01:04:45;;;;;;;187.27;103.80;;;6.40;99.90;;;;;;4210091;28;20113;-61
2023/01/01 01:06:46;;;;;;;199.23;108.97;;;6.30;99.90;;;;;;4211159;28;20124;-62
2023/01/01 01:08:47;;;;;;;195.23;106.27;;;6.30;99.90;;;;;;4210769;28;20031;-61
2023/01/01 01:10:49;;;;;;;191.30;107.37;;;6.30;99.90;;;;;;4210818;28;20040;-63
2023/01/01 01:12:50;;;;;;;197.83;108.63;;;6.30;99.90;;;;;;4210318;28;20066;-61
2023/01/01 01:14:51;;;;;;;206.30;111.87;;;6.30;99.90;;;;;;4210043;28;20426;-60
2023/01/01 01:16:52;;;;;;;200.80;108.87;;;6.30;99.90;;;;;;4210655;28;20081;-60
2023/01/01 01:18:57;;;;;;;203.13;111.10;;;6.30;99.90;;;;;;4209191;28;20085;-60
2023/01/01 01:20:58;;;;;;;250.17;134.77;;;6.30;99.90;;;;;;4210846;28;20101;-62
2023/01/01 01:22:59;;;;;;;250.97;127.93;;;6.30;99.90;;;;;;4209362;28;20044;-58
2023/01/01 01:25:01;;;;;;;242.37;129.83;;;6.40;99.90;;;;;;4210788;28;20040;-60
2023/01/01 01:27:02;;;;;;;234.33;126.80;;;6.40;99.90;;;;;;4209653;28;20031;-60
2023/01/01 01:29:03;;;;;;;193.60;103.47;;;6.40;99.90;;;;;;4210917;28;20039;-62
2023/01/01 01:31:05;;;;;;;185.03;107.37;;;6.40;99.90;;;;;;4209531;28;20089;-57
2023/01/01 01:33:07;;;;;;;168.40;100.33;;;6.40;99.90;;;;;;4210633;28;20032;-63
2023/01/01 01:35:09;;;;;;;173.23;99.57;;;6.40;99.90;;;;;;4209527;28;20036;-59
2023/01/01 01:37:11;;;;;;;165.20;95.57;;;6.40;99.90;;;;;;4211150;28;20113;-60
2023/01/01 01:39:12;;;;;;;153.60;90.70;;;6.40;99.90;;;;;;4209448;28;20325;-60
2023/01/01 01:41:14;;;;;;;158.10;94.00;;;6.40;99.90;;;;;;4207480;28;20700;-59
2023/01/01 01:43:20;;;;;;;178.53;101.97;;;6.40;99.90;;;;;;4209920;28;20113;-60
2023/01/01 01:45:22;;;;;;;179.17;105.50;;;6.40;99.90;;;;;;4209112;28;20093;-60
2023/01/01 01:47:25;;;;;;;168.23;101.97;;;6.40;99.90;;;;;;4208453;28;20008;-62
2023/01/01 01:49:31;;;;;;;172.83;95.87;;;6.40;99.90;;;;;;4208531;28;20028;-60
2023/01/01 01:51:37;;;;;;;161.70;93.17;;;6.40;99.90;;;;;;4209101;28;20032;-60
2023/01/01 01:53:43;;;;;;;144.67;85.93;;;6.40;99.90;;;;;;4209595;28;20040;-61
2023/01/01 01:55:52;;;;;;;145.10;85.13;;;6.40;99.90;;;;;;4210400;28;20070;-61
2023/01/01 01:57:53;;;;;;;145.03;85.67;;;6.40;99.90;;;;;;4210189;28;20036;-61
2023/01/01 01:59:56;;;;;;;160.73;87.80;;;6.40;99.90;;;;;;4212708;28;20065;-62
2023/01/01 02:01:58;;;;;;;147.27;84.17;;;6.40;99.90;;;;;;4211273;28;20028;-60
2023/01/01 02:04:01;;;;;;;151.93;84.40;;;6.40;99.90;;;;;;4211911;28;20089;-60
2023/01/01 02:06:03;;;;;;;153.07;86.83;;;6.40;99.90;;;;;;4212292;28;20032;-61
2023/01/01 02:08:05;;;;;;;143.57;83.63;;;6.40;99.90;;;;;;4213299;28;20449;-59
2023/01/01 02:10:06;;;;;;;148.63;82.30;;;6.40;99.90;;;;;;4211714;28;20032;-60
2023/01/01 02:12:07;;;;;;;140.70;81.83;;;6.40;99.90;;;;;;4212692;28;20040;-62
2023/01/01 02:14:08;;;;;;;117.40;71.93;;;6.40;99.90;;;;;;4212007;28;20081;-63
2023/01/01 02:16:19;;;;;;;126.67;70.20;;;6.40;99.90;;;;;;4213420;28;20081;-61
2023/01/01 02:18:26;;;;;;;122.67;69.60;;;6.40;99.90;;;;;;4212321;28;20414;-61
2023/01/01 02:20:31;;;;;;;131.80;75.80;;;6.40;99.90;;;;;;4213042;28;20028;-64
2023/01/01 02:23:17;;;;;;;140.07;79.67;;;6.40;99.90;;;;;;4212326;28;20051;-60
2023/01/01 02:25:27;;;;;;;132.17;77.73;;;6.40;99.90;;;;;;4191396;28;20106;-61
2023/01/01 02:27:53;;;;;;;140.13;78.50;;;6.40;99.90;;;;;;4212099;28;20425;-60
2023/01/01 02:30:04;;;;;;;163.23;87.33;;;6.40;99.90;;;;;;4212974;28;20571;-60
2023/01/01 02:32:14;;;;;;;176.83;95.50;;;6.40;99.90;;;;;;4211874;28;20442;-60
2023/01/01 02:34:20;;;;;;;171.68;96.47;;;6.40;99.90;;;;;;4213149;28;20446;-60
2023/01/01 02:36:25;;;;;;;177.80;101.40;;;6.30;99.90;;;;;;4211465;28;20058;-63
2023/01/01 02:38:39;;;;;;;178.27;101.33;;;6.30;99.90;;;;;;4213115;28;20149;-63
2023/01/01 02:40:45;;;;;;;195.20;104.07;;;6.30;99.90;;;;;;4208785;28;20102;-62
2023/01/01 02:42:48;;;;;;;172.53;98.57;;;6.30;99.90;;;;;;4212815;28;20519;-60
2023/01/01 02:44:52;;;;;;;195.77;105.77;;;6.30;99.90;;;;;;4211630;28;20086;-60
2023/01/01 02:46:53;;;;;;;184.80;103.07;;;6.30;99.90;;;;;;4213202;28;20052;-60
2023/01/01 02:48:54;;;;;;;168.47;95.03;;;6.30;99.90;;;;;;4211245;28;20077;-61
2023/01/01 02:51:01;;;;;;;181.70;99.87;;;6.30;99.90;;;;;;4211845;28;20040;-58
2023/01/01 02:53:20;;;;;;;171.10;96.93;;;6.30;99.90;;;;;;4211623;28;20044;-59
2023/01/01 02:55:40;;;;;;;169.13;92.63;;;6.20;99.90;;;;;;4212903;28;20032;-60
2023/01/01 02:57:55;;;;;;;164.38;91.22;;;6.30;99.90;;;;;;4212090;28;20360;-60
2023/01/01 03:00:23;;;;;;;146.47;86.27;;;6.20;99.90;;;;;;4213118;28;20488;-59
2023/01/01 03:02:35;;;;;;;142.60;81.30;;;6.30;99.90;;;;;;4211512;28;20040;-61
2023/01/01 03:05:04;;;;;;;138.10;79.23;;;6.20;99.90;;;;;;4213130;28;20043;-61
2023/01/01 03:07:16;;;;;;;144.70;78.17;;;6.20;99.90;;;;;;4211801;28;20434;-62
2023/01/01 03:09:43;;;;;;;130.70;75.77;;;6.20;99.90;;;;;;4212790;28;20028;-61
2023/01/01 03:11:44;;;;;;;131.23;74.30;;;6.20;99.90;;;;;;4211732;28;20456;-61
2023/01/01 03:14:05;;;;;;;147.20;78.53;;;6.20;99.90;;;;;;4212572;28;20036;-60
2023/01/01 03:16:22;;;;;;;137.10;76.03;;;6.20;99.90;;;;;;4212159;28;20040;-59
2023/01/01 03:18:30;;;;;;;130.00;76.23;;;6.20;99.90;;;;;;4211659;28;20441;-61
2023/01/01 03:20:33;;;;;;;136.23;76.20;;;6.20;99.90;;;;;;4212307;28;20036;-61
2023/01/01 03:22:37;;;;;;;129.03;75.30;;;6.20;99.90;;;;;;4211078;28;20020;-60
2023/01/01 03:24:46;;;;;;;134.33;75.90;;;6.20;99.90;;;;;;4211067;28;20449;-60
2023/01/01 03:26:51;;;;;;;130.23;75.33;;;6.20;99.90;;;;;;4211360;28;20125;-60
2023/01/01 03:28:57;;;;;;;142.80;76.13;;;6.20;99.90;;;;;;4210572;28;20437;-60
2023/01/01 03:30:59;;;;;;;136.67;77.20;;;6.20;99.90;;;;;;4210119;28;20085;-60
2023/01/01 03:33:10;;;;;;;127.57;72.13;;;6.10;99.90;;;;;;4211463;28;20089;-61
2023/01/01 03:35:13;;;;;;;128.13;72.57;;;6.20;99.90;;;;;;4211089;28;20369;-59
2023/01/01 03:37:22;;;;;;;122.37;71.73;;;6.10;99.90;;;;;;4203374;28;20035;-60
2023/01/01 03:39:46;;;;;;;129.73;70.47;;;6.10;99.90;;;;;;4213147;28;20097;-63
2023/01/01 03:41:59;;;;;;;131.47;72.80;;;6.10;99.90;;;;;;4211454;28;20040;-61
2023/01/01 03:44:26;;;;;;;123.53;68.90;;;6.10;99.90;;;;;;4211736;28;20036;-62
2023/01/01 03:46:29;;;;;;;118.83;70.40;;;6.10;99.90;;;;;;4211606;28;20069;-62
2023/01/01 03:48:54;;;;;;;123.20;72.10;;;6.10;99.90;;;;;;4211718;28;20066;-61
2023/01/01 03:51:10;;;;;;;122.70;69.03;;;6.00;99.90;;;;;;4211431;28;20445;-61
2023/01/01 03:53:37;;;;;;;119.43;69.63;;;6.00;99.90;;;;;;4194349;28;20070;-61
2023/01/01 03:56:06;;;;;;;116.90;67.13;;;6.00;99.90;;;;;;4190383;28;20094;-58
2023/01/01 03:58:25;;;;;;;116.97;67.90;;;6.00;99.90;;;;;;4200741;28;20039;-63
2023/01/01 04:00:32;;;;;;;121.67;70.43;;;5.90;99.90;;;;;;4212105;28;20373;-59
2023/01/01 04:02:42;;;;;;;110.47;66.60;;;5.90;99.90;;;;;;4210871;28;20418;-60
2023/01/01 04:04:43;;;;;;;114.37;68.93;;;5.90;99.90;;;;;;4212131;28;20044;-59
2023/01/01 04:06:45;;;;;;;115.43;67.50;;;6.00;99.90;;;;;;4210462;28;20028;-61
2023/01/01 04:08:48;;;;;;;123.33;67.93;;;5.90;99.90;;;;;;4212342;28;20533;-60
2023/01/01 04:10:56;;;;;;;121.03;69.33;;;5.90;99.90;;;;;;4210453;28;20032;-60
2023/01/01 04:12:57;;;;;;;119.10;67.77;;;6.00;99.90;;;;;;4211814;28;20058;-61
2023/01/01 04:14:59;;;;;;;121.60;70.10;;;5.90;99.90;;;;;;4210584;28;20423;-60
2023/01/01 04:17:01;;;;;;;128.63;74.17;;;6.00;99.90;;;;;;4211594;28;20032;-61
2023/01/01 04:19:05;;;;;;;125.07;70.23;;;6.00;99.90;;;;;;4210844;28;20070;-61
2023/01/01 04:21:06;;;;;;;123.33;67.77;;;6.00;99.90;;;;;;4210852;28;20093;-60
2023/01/01 04:23:08;;;;;;;120.63;70.03;;;6.00;99.90;;;;;;4211240;28;20036;-62
2023/01/01 04:25:10;;;;;;;121.50;68.77;;;6.00;99.90;;;;;;4210595;28;20515;-62
2023/01/01 04:27:11;;;;;;;126.10;69.70;;;6.00;99.90;;;;;;4211465;28;20031;-61
2023/01/01 04:29:13;;;;;;;123.17;71.00;;;6.00;99.90;;;;;;4210664;28;20032;-59
2023/01/01 04:31:14;;;;;;;119.73;69.17;;;6.00;99.90;;;;;;4211723;28;20077;-60
2023/01/01 04:33:15;;;;;;;118.90;71.17;;;6.00;99.90;;;;;;4210514;28;20091;-61
2023/01/01 04:35:16;;;;;;;122.17;70.13;;;5.90;99.90;;;;;;4211466;28;20081;-59
2023/01/01 04:37:17;;;;;;;125.13;69.40;;;5.80;99.90;;;;;;4210669;28;20459;-60
2023/01/01 04:39:18;;;;;;;130.67;71.37;;;5.80;99.90;;;;;;4211715;28;20093;-59
2023/01/01 04:41:19;;;;;;;110.10;66.40;;;5.70;99.90;;;;;;4209414;28;20032;-61
2023/01/01 04:43:20;;;;;;;125.00;68.17;;;5.60;99.90;;;;;;4211713;28;20043;-58
2023/01/01 04:45:22;;;;;;;116.27;67.50;;;5.50;99.90;;;;;;4210363;28;20540;-60
2023/01/01 04:47:23;;;;;;;119.07;69.60;;;5.50;99.90;;;;;;4210749;28;20028;-59
2023/01/01 04:49:24;;;;;;;128.70;69.80;;;5.40;99.90;;;;;;4210725;28;20032;-61
2023/01/01 04:51:25;;;;;;;124.37;69.70;;;5.40;99.90;;;;;;4210757;28;20066;-62
2023/01/01 04:53:29;;;;;;;125.67;70.13;;;5.40;99.90;;;;;;4210838;28;20024;-56
2023/01/01 04:55:30;;;;;;;122.33;68.50;;;5.30;99.90;;;;;;4210759;28;20020;-62
2023/01/01 04:57:31;;;;;;;135.60;71.83;;;5.30;99.90;;;;;;4211232;28;20492;-60
2023/01/01 04:59:32;;;;;;;130.83;68.13;;;5.40;99.90;;;;;;4210149;28;20089;-60
2023/01/01 05:01:33;;;;;;;123.53;67.33;;;5.40;99.90;;;;;;4211479;28;20036;-60
2023/01/01 05:03:36;;;;;;;114.37;63.43;;;5.30;99.90;;;;;;4209773;28;20051;-60
2023/01/01 05:05:37;;;;;;;118.33;67.47;;;5.40;99.90;;;;;;4211298;28;20445;-60
2023/01/01 05:07:38;;;;;;;128.60;70.33;;;5.40;99.90;;;;;;4209723;28;20078;-59
2023/01/01 05:09:39;;;;;;;119.60;68.10;;;5.40;99.90;;;;;;4211540;28;20058;-60
2023/01/01 05:11:40;;;;;;;122.17;68.17;;;5.40;99.90;;;;;;4209327;28;20036;-60
2023/01/01 05:13:43;;;;;;;118.20;66.80;;;5.40;99.90;;;;;;4210168;28;20039;-59
2023/01/01 05:15:45;;;;;;;120.53;68.00;;;5.40;99.90;;;;;;4210064;28;20097;-57
2023/01/01 05:17:46;;;;;;;123.73;68.73;;;5.40;99.90;;;;;;4211280;28;20021;-61
2023/01/01 05:19:47;;;;;;;119.23;70.57;;;5.40;99.90;;;;;;4210251;28;20077;-60
2023/01/01 05:21:48;;;;;;;117.67;68.53;;;5.40;99.90;;;;;;4210520;28;20410;-61
2023/01/01 05:23:56;;;;;;;122.50;68.10;;;5.40;99.90;;;;;;4209872;28;20052;-59
2023/01/01 05:25:58;;;;;;;131.97;71.37;;;5.40;99.90;;;;;;4210384;28;20040;-59
2023/01/01 05:27:59;;;;;;;126.50;66.70;;;5.30;99.90;;;;;;4210220;28;20077;-60
2023/01/01 05:30:00;;;;;;;121.23;67.40;;;5.30;99.90;;;;;;4210219;28;20024;-60
2023/01/01 05:32:01;;;;;;;112.73;65.57;;;5.30;99.90;;;;;;4211308;28;20573;-56
2023/01/01 05:34:03;;;;;;;118.30;65.73;;;5.40;99.90;;;;;;4213346;28;20028;-60
2023/01/01 05:36:06;;;;;;;112.83;60.57;;;5.40;99.90;;;;;;4214384;28;20392;-60
2023/01/01 05:38:08;;;;;;;111.90;62.50;;;5.30;99.90;;;;;;4213458;28;20077;-60
2023/01/01 05:40:09;;;;;;;108.87;61.50;;;5.30;99.90;;;;;;4214472;28;20036;-61
2023/01/01 05:42:10;;;;;;;107.77;58.77;;;5.30;99.90;;;;;;4213357;28;20032;-58
2023/01/01 05:44:12;;;;;;;107.53;59.40;;;5.30;99.90;;;;;;4214471;28;20048;-60
2023/01/01 05:46:16;;;;;;;115.07;63.63;;;5.20;99.90;;;;;;4212603;28;20020;-60
2023/01/01 05:48:17;;;;;;;109.77;61.53;;;5.20;99.90;;;;;;4214137;28;20058;-62
2023/01/01 05:50:18;;;;;;;115.77;64.57;;;5.20;99.90;;;;;;4213050;28;20032;-60
2023/01/01 05:52:19;;;;;;;108.77;62.77;;;5.10;99.90;;;;;;4213902;28;20062;-61
2023/01/01 05:54:20;;;;;;;96.27;55.07;;;5.10;99.90;;;;;;4213200;28;20036;-60
2023/01/01 05:56:22;;;;;;;87.43;48.60;;;5.10;99.90;;;;;;4213488;28;20419;-59
2023/01/01 05:58:24;;;;;;;85.97;47.10;;;5.10;99.90;;;;;;4213318;28;20422;-60
2023/01/01 06:00:27;;;;;;;73.93;41.63;;;5.00;99.90;;;;;;4212960;28;20090;-59
2023/01/01 06:02:30;;;;;;;68.13;39.37;;;5.00;99.90;;;;;;4213572;28;20024;-61
2023/01/01 06:04:31;;;;;;;71.37;41.13;;;4.90;99.90;;;;;;4212908;28;20097;-64
2023/01/01 06:06:32;;;;;;;73.27;41.90;;;4.90;99.90;;;;;;4213593;28;20028;-62
2023/01/01 06:08:33;;;;;;;65.80;38.20;;;4.90;99.90;;;;;;4213023;28;20040;-62
2023/01/01 06:10:34;;;;;;;81.83;38.27;;;4.80;99.90;;;;;;4213619;28;20069;-60
2023/01/01 06:12:36;;;;;;;65.90;36.80;;;4.80;99.90;;;;;;4212506;28;20085;-61
2023/01/01 06:14:37;;;;;;;65.90;35.30;;;4.80;99.90;;;;;;4214096;28;20041;-62
2023/01/01 06:16:38;;;;;;;60.73;33.67;;;4.90;99.90;;;;;;4212485;28;20024;-62
2023/01/01 06:18:39;;;;;;;70.20;36.70;;;4.90;99.90;;;;;;4213813;28;20082;-62
2023/01/01 06:20:40;;;;;;;126.17;35.27;;;4.90;99.90;;;;;;4212584;28;20085;-62
2023/01/01 06:22:41;;;;;;;345.07;45.17;;;4.90;99.90;;;;;;4213447;28;21233;-60
2023/01/01 06:24:42;;;;;;;131.13;37.67;;;4.90;99.90;;;;;;4212420;28;20103;-60
2023/01/01 06:26:43;;;;;;;331.83;44.97;;;4.80;99.90;;;;;;4212968;28;20093;-63
2023/01/01 06:28:45;;;;;;;301.40;41.83;;;4.70;99.90;;;;;;4212868;28;20016;-63
2023/01/01 06:30:46;;;;;;;301.27;41.57;;;4.70;99.90;;;;;;4212946;28;20032;-63
2023/01/01 06:32:48;;;;;;;150.20;34.47;;;4.70;99.90;;;;;;4212870;28;20020;-61
2023/01/01 06:34:49;;;;;;;452.63;53.73;;;4.60;99.90;;;;;;4212695;28;20040;-61
2023/01/01 06:36:50;;;;;;;414.73;51.43;;;4.50;99.90;;;;;;4213121;28;20048;-61
2023/01/01 06:38:54;;;;;;;315.77;47.33;;;4.40;99.90;;;;;;4212652;28;20028;-62
2023/01/01 06:41:00;;;;;;;313.63;52.37;;;4.30;99.90;;;;;;4213291;28;20073;-59
2023/01/01 06:43:01;;;;;;;264.53;52.17;;;4.20;99.90;;;;;;4211580;28;20036;-61
2023/01/01 06:45:02;;;;;;;456.37;62.83;;;4.00;99.90;;;;;;4213150;28;20449;-59
2023/01/01 06:47:03;;;;;;;489.47;67.23;;;3.90;99.90;;;;;;4212019;28;20093;-64
2023/01/01 06:49:09;;;;;;;280.13;58.43;;;3.80;99.90;;;;;;4213117;28;20082;-61
2023/01/01 06:51:13;;;;;;;408.77;64.57;;;3.60;99.90;;;;;;4211790;28;20269;-61
2023/01/01 06:53:14;;;;;;;582.10;78.40;;;3.60;99.90;;;;;;4213177;28;20257;-63
2023/01/01 06:55:15;;;;;;;375.77;64.07;;;3.60;99.90;;;;;;4211902;28;20082;-65
2023/01/01 06:57:16;;;;;;;537.67;74.97;;;3.50;99.90;;;;;;4213323;28;20322;-64
2023/01/01 06:59:17;;;;;;;443.27;63.27;;;3.60;99.90;;;;;;4212112;28;20329;-62
2023/01/01 07:01:21;;;;;;;466.73;66.97;;;3.60;99.90;;;;;;4210615;28;20346;-62
2023/01/01 07:03:24;;;;;;;455.57;63.43;;;3.60;99.90;;;;;;4212145;28;20802;-63
2023/01/01 07:05:25;;;;;;;595.83;81.20;;;3.50;99.90;;;;;;4212162;28;20740;-62
2023/01/01 07:07:26;;;;;;;444.23;61.37;;;3.50;99.90;;;;;;4212316;28;20273;-63
2023/01/01 07:09:27;;;;;;;294.87;58.93;;;3.50;99.90;;;;;;4212615;28;20337;-59
2023/01/01 07:11:29;;;;;;;681.17;81.67;;;3.60;99.90;;;;;;4212699;28;20314;-63
2023/01/01 07:13:30;;;;;;;423.60;64.97;;;3.60;99.90;;;;;;4211062;28;20265;-63
2023/01/01 07:15:31;;;;;;;375.10;66.63;;;3.50;99.90;;;;;;4212573;28;20334;-61
2023/01/01 07:17:32;;;;;;;448.37;69.50;;;3.60;99.90;;;;;;4211261;28;20280;-64
2023/01/01 07:19:33;;;;;;;491.57;79.37;;;3.50;99.90;;;;;;4213008;28;20276;-62
2023/01/01 07:21:44;;;;;;;461.63;79.63;;;3.50;99.90;;;;;;4211528;28;20794;-64
2023/01/01 07:23:45;;;;;;;;;;;3.50;99.90;;;;;;4213033;28;20288;-63
2023/01/01 07:25:49;;;;;;;;;;;3.50;99.90;;;;;;4212264;28;19904;-60
2023/01/01 07:27:50;;;;;;;359.97;70.57;;;3.60;99.90;;;;;;4212923;28;19912;-63
2023/01/01 07:29:52;;;;;;;443.97;78.30;;;3.70;99.90;;;;;;4211232;28;20670;-63
2023/01/01 07:31:53;;;;;;;444.33;79.30;;;3.80;99.90;;;;;;4212562;28;20333;-64
2023/01/01 07:33:54;;;;;;;515.50;81.83;;;3.80;99.90;;;;;;4211167;28;20282;-61
2023/01/01 07:35:55;;;;;;;430.10;81.40;;;3.80;99.90;;;;;;4212144;28;20290;-63
2023/01/01 07:37:56;;;;;;;523.80;87.57;;;3.90;99.90;;;;;;4211125;28;20272;-63
2023/01/01 07:39:57;;;;;;;497.67;91.70;;;4.00;99.90;;;;;;4212051;28;20779;-63
2023/01/01 07:41:58;;;;;;;440.67;86.67;;;4.00;99.90;;;;;;4211905;28;20245;-63
2023/01/01 07:43:59;;;;;;;445.87;86.83;;;4.00;99.90;;;;;;4211480;28;20337;-62
2023/01/01 07:46:01;;;;;;;579.07;103.33;;;4.00;99.90;;;;;;4212188;28;20765;-63
2023/01/01 07:48:02;;;;;;;381.73;80.93;;;4.00;99.90;;;;;;4211294;28;20724;-60
2023/01/01 07:50:04;;;;;;;436.37;88.57;;;4.00;99.90;;;;;;4212167;28;20299;-62
2023/01/01 07:52:05;;;;;;;638.87;110.83;;;4.10;99.90;;;;;;4210948;28;20291;-62
2023/01/01 07:54:06;;;;;;;455.87;92.13;;;4.10;99.90;;;;;;4212073;28;20310;-60
2023/01/01 07:56:08;;;;;;;567.67;102.80;;;4.10;99.90;;;;;;4210457;28;20261;-60
2023/01/01 07:58:10;;;;;;;378.70;88.60;;;4.00;99.90;;;;;;4211965;28;20801;-59
2023/01/01 08:00:15;;;;;;;357.63;86.63;;;4.00;99.90;;;;;;4210700;28;20322;-60
2023/01/01 08:02:16;;;;;;;325.93;83.93;;;4.10;99.90;;;;;;4212126;28;20272;-59
2023/01/01 08:04:17;;;;;;;573.27;104.87;;;4.10;99.90;;;;;;4210643;28;20285;-61
2023/01/01 08:06:18;;;;;;;392.73;82.27;;;4.10;99.90;;;;;;4211758;28;20655;-60
2023/01/01 08:08:19;;;;;;;412.30;83.23;;;4.10;99.90;;;;;;4210998;28;20257;-62
2023/01/01 08:10:21;;;;;;;466.40;86.60;;;4.10;99.90;;;;;;4211736;28;20269;-61
2023/01/01 08:12:22;;;;;;;284.17;76.57;;;4.10;99.90;;;;;;4211249;28;20265;-60
2023/01/01 08:14:26;;;;;;;373.13;82.63;;;4.20;99.90;;;;;;4211134;28;20330;-61
2023/01/01 08:16:28;;;;;;;230.63;70.77;;;4.30;99.90;;;;;;4211194;28;21851;-60
2023/01/01 08:18:29;;;;;;;375.83;80.03;;;4.40;99.90;;;;;;4210626;28;20589;-60
2023/01/01 08:20:32;;;;;;;237.43;72.93;;;4.40;99.90;;;;;;4211767;28;20257;-60
2023/01/01 08:22:33;;;;;;;319.57;73.13;;;4.40;99.90;;;;;;4210497;28;20310;-59
2023/01/01 08:24:34;;;;;;;287.33;67.17;;;4.40;99.90;;;;;;4211749;28;20710;-57
2023/01/01 08:26:38;;;;;;;272.67;63.63;;;4.40;99.90;;;;;;4210523;28;20273;-59
2023/01/01 08:28:39;;;;;;;403.27;71.27;;;4.30;99.90;;;;;;4211693;28;20272;-58
2023/01/01 08:30:40;;;;;;;307.30;59.50;;;4.30;99.90;;;;;;4210837;28;20326;-60
2023/01/01 08:32:42;;;;;;;316.17;60.23;;;4.30;99.90;;;;;;4211539;28;20264;-59
2023/01/01 08:34:43;;;;;;;224.07;52.80;;;4.30;99.90;;;;;;4210586;28;20613;-60
2023/01/01 08:36:44;;;;;;;239.43;49.73;;;4.30;99.90;;;;;;4211789;28;20476;-65
2023/01/01 08:38:45;;;;;;;386.70;55.73;;;4.30;99.90;;;;;;4210584;28;20317;-61
2023/01/01 08:40:47;;;;;;;276.17;53.43;;;4.20;99.90;;;;;;4211628;28;20280;-59
2023/01/01 08:42:48;;;;;;;200.10;48.27;;;4.20;99.90;;;;;;4210362;28;20667;-61
2023/01/01 08:44:49;;;;;;;302.63;54.87;;;4.20;99.90;;;;;;4208520;28;20690;-63
2023/01/01 08:46:52;;;;;;;220.83;50.47;;;4.30;99.90;;;;;;4211170;28;20260;-59
2023/01/01 08:48:53;;;;;;;139.20;46.30;;;4.30;99.90;;;;;;4210588;28;20322;-60
2023/01/01 08:50:59;;;;;;;132.30;44.93;;;4.30;99.90;;;;;;4211134;28;20638;-59
2023/01/01 08:53:00;;;;;;;206.53;49.23;;;4.30;99.90;;;;;;4210222;28;20330;-61
2023/01/01 08:55:01;;;;;;;350.93;56.90;;;4.40;99.90;;;;;;4211415;28;20261;-59
2023/01/01 08:57:03;;;;;;;132.20;46.10;;;4.40;99.90;;;;;;4210420;28;20272;-60
2023/01/01 08:59:05;;;;;;;259.90;50.63;;;4.40;99.90;;;;;;4211320;28;20276;-60
2023/01/01 09:01:06;;;;;;;304.57;51.87;;;4.50;99.90;;;;;;4209933;28;20330;-62
2023/01/01 09:03:07;;;;;;;133.87;44.40;;;4.60;99.90;;;;;;4210579;28;20334;-64
2023/01/01 09:05:09;;;;;;;342.03;57.67;;;4.60;99.90;;;;;;4210109;28;20040;-59
2023/01/01 09:07:10;;;;;;;215.53;52.93;;;4.60;99.90;;;;;;4213119;28;20760;-60
2023/01/01 09:09:12;;;;;;;331.67;58.87;;;4.60;99.90;;;;;;4213924;28;20325;-62
2023/01/01 09:11:26;;;;;;;244.87;54.60;;;4.70;99.90;;;;;;4214760;28;20264;-61
2023/01/01 09:13:28;;;;;;;235.90;53.23;;;4.80;99.90;;;;;;4213691;28;20310;-59
2023/01/01 09:15:29;;;;;;;118.37;47.27;;;4.70;99.90;;;;;;4214366;28;20265;-60
2023/01/01 09:17:30;;;;;;;249.67;50.60;;;4.80;99.90;;;;;;4213563;28;20314;-59
2023/01/01 09:19:32;;;;;;;119.13;44.73;;;4.90;99.90;;;;;;4213972;28;20277;-55
2023/01/01 09:21:33;;;;;;;130.93;48.70;;;4.90;99.90;;;;;;4214022;28;20028;-59
2023/01/01 09:23:34;;;;;;;120.70;48.93;;;5.00;99.90;;;;;;4213348;28;20326;-60
2023/01/01 09:25:35;;;;;;;110.17;46.47;;;5.10;99.90;;;;;;4213829;28;20055;-62
2023/01/01 09:27:36;;;;;;;105.40;45.93;;;5.10;99.90;;;;;;4213316;28;20773;-60
2023/01/01 09:29:37;;;;;;;85.63;46.17;;;5.20;99.90;;;;;;4214349;28;20061;-63
2023/01/01 09:31:38;;;;;;;87.00;48.53;;;5.30;99.90;;;;;;4213310;28;20086;-60
2023/01/01 09:33:39;;;;;;;136.90;50.23;;;5.30;99.90;;;;;;4214337;28;20532;-60
2023/01/01 09:35:43;;;;;;;149.00;45.63;;;5.40;99.90;;;;;;4213090;28;20085;-60
2023/01/01 09:37:44;;;;;;;98.27;45.17;;;5.50;99.90;;;;;;4214215;28;20118;-61
2023/01/01 09:39:45;;;;;;;160.50;46.03;;;5.50;99.90;;;;;;4213887;28;20029;-61
2023/01/01 09:42:04;;;;;;;131.57;44.03;;;5.50;99.90;;;;;;4214321;28;20487;-63
2023/01/01 09:44:54;;;;;;;81.50;39.53;;;5.60;99.90;;;;;;4212983;28;20101;-60
2023/01/01 09:47:01;;;;;;;73.27;39.73;;;5.80;99.90;;;;;;4161700;28;20033;-61
2023/01/01 09:49:17;;;;;;;66.60;38.37;;;6.00;99.90;;;;;;4177516;28;20029;-62
2023/01/01 09:51:20;;;;;;;65.13;37.53;;;6.10;99.90;;;;;;4180358;28;20045;-61
2023/01/01 09:53:53;;;;;;;58.20;35.30;;;6.30;99.90;;;;;;4196205;28;20533;-60
2023/01/01 09:55:57;;;;;;;58.17;35.87;;;6.40;99.90;;;;;;4196952;28;20036;-62
2023/01/01 09:57:58;;;;;;;58.57;36.17;;;6.60;99.90;;;;;;4203263;28;20032;-61
2023/01/01 10:00:00;;;;;;;51.43;33.43;;;6.70;99.90;;;;;;4213390;28;20056;-61
2023/01/01 10:02:38;;;;;;;52.10;33.23;;;6.80;99.90;;;;;;4212687;28;20050;-64
2023/01/01 10:05:00;;;;;;;49.57;33.50;;;6.90;99.90;;;;;;4212322;28;20040;-60
2023/01/01 10:07:12;;;;;;;50.43;30.77;;;6.90;99.90;;;;;;4212927;28;20483;-61
2023/01/01 10:09:25;;;;;;;54.07;31.97;;;7.00;99.90;;;;;;4211648;28;20303;-60
2023/01/01 10:11:29;;;;;;;46.20;29.77;;;7.10;99.90;;;;;;4209508;28;20133;-60
2023/01/01 10:13:38;;;;;;;42.90;28.70;;;7.20;99.90;;;;;;4212886;28;20464;-60
2023/01/01 10:15:52;;;;;;;40.57;27.10;;;7.40;99.90;;;;;;4212584;28;20040;-62
2023/01/01 10:17:57;;;;;;;39.13;26.20;;;7.50;99.90;;;;;;4211470;28;20028;-60
2023/01/01 10:20:06;;;;;;;39.90;26.83;;;7.50;99.90;;;;;;4212719;28;20094;-61
2023/01/01 10:22:15;;;;;;;38.87;26.27;;;7.70;99.90;;;;;;4212883;28;20116;-61
2023/01/01 10:24:40;;;;;;;41.63;26.30;;;7.80;99.90;;;;;;4212779;28;20458;-62
2023/01/01 10:26:41;;;;;;;37.30;25.53;;;7.90;99.90;;;;;;4213119;28;20372;-61
2023/01/01 10:29:10;;;;;;;37.60;25.13;;;8.00;99.90;;;;;;4212426;28;20024;-60
2023/01/01 10:31:32;;;;;;;40.23;26.03;;;8.00;99.90;;;;;;4211441;28;20074;-60
2023/01/01 10:33:33;;;;;;;42.63;26.27;;;8.10;99.90;;;;;;4213239;28;20032;-61
2023/01/01 10:35:57;;;;;;;37.33;26.40;;;8.20;99.90;;;;;;4211943;28;20024;-62